Pagrindinis puslapis
METAR-TAF:

METAR-TAF

Oro uostai :

Dėras, Vengrija

platuma: 47-37-28N, ilguma: 017-48-49E, Aukštis: 129 m

Dabartinis oras

Ataskaita buvo paskelbta 45 minutes, ne 18:45 UTC
Vėjas 7 kt iš Vakarų/Šiaurės Vakarų
Temperatūra 7°C
Drėgmė 76%
Slėgis 1027 hPa
Matomumas 10 km arba daugiau
nėra debesų žemiau 1500 m ir nėra kamuolinių lietaus debesų

METAR: LHPR 191845Z AUTO 30007KT CAVOK 07/03 Q1027

Laikas: 21:30 (19:30 UTC)

Prognozė

Ataskaita buvo paskelbta 2 valandos ir 15 minutes, ne 17:15 UTC
Prognozė galioja nuo 19 metu 18 UTC su 20 metu 03 UTC
Vėjas 6 kt iš Šiaurės/Šiaurės Vakarų
Matomumas 10 km arba daugiau
nėra debesų žemiau 1500 m ir nėra kamuolinių lietaus debesų

TAF: LHPR 191715Z 1918/2003 33006KT CAVOK

Orai ataskaitas ir orų prognozės (METAR, TAF).

turimą stotys yra geltonos ir raudonos taškus žemėlapyje.

Perkelti pele per norėdami pamatyti stoties vardą.

Tada spustelėkite, norėdami matyti oro stebėjimo ir prognozės.

Norėdami pakeisti žemėlapį: spustelėkite ant žalios mygtukų su juodo kryžiaus žemyn,; žalią mygtuką su brūkšneliu, jei norite nutolinti; arba žalių rodyklių gretimoms žemėlapius.


METAR-TAF: